createdAt,value
2023-12-28T00:00:22.636Z,83.60
2023-12-28T00:02:50.074Z,83.87
2023-12-28T00:05:17.765Z,83.64
2023-12-28T00:07:45.112Z,83.94
2023-12-28T00:10:12.482Z,83.67
2023-12-28T00:12:39.879Z,83.38
2023-12-28T00:15:08.177Z,83.47
2023-12-28T00:17:37.133Z,83.65
2023-12-28T00:20:05.458Z,83.50
2023-12-28T00:22:32.809Z,83.98
2023-12-28T00:25:00.119Z,83.86
2023-12-28T00:27:27.767Z,84.39
2023-12-28T00:29:55.093Z,83.53
2023-12-28T00:32:22.516Z,83.84
2023-12-28T00:34:51.225Z,83.81
2023-12-28T00:37:18.693Z,84.37
2023-12-28T00:39:48.278Z,84.56
2023-12-28T00:42:15.567Z,84.23
2023-12-28T00:44:43.176Z,84.01
2023-12-28T00:47:12.173Z,84.63
2023-12-28T00:49:39.662Z,83.96
2023-12-28T00:52:08.472Z,84.19
2023-12-28T00:54:37.842Z,84.69
2023-12-28T00:57:05.666Z,84.85
2023-12-28T00:59:33.115Z,84.16
2023-12-28T01:02:01.858Z,84.13
2023-12-28T01:04:29.307Z,84.13
2023-12-28T01:06:56.895Z,84.81
2023-12-28T01:09:26.258Z,84.07
2023-12-28T01:11:53.572Z,84.06
2023-12-28T01:14:20.913Z,84.18
2023-12-28T01:16:48.479Z,84.46
2023-12-28T01:19:17.053Z,84.71
2023-12-28T01:21:47.388Z,84.59
2023-12-28T01:24:14.673Z,84.43
2023-12-28T01:26:44.053Z,84.67
2023-12-28T01:29:11.815Z,84.34
2023-12-28T01:31:40.412Z,84.43
2023-12-28T01:34:10.502Z,83.93
2023-12-28T01:36:38.085Z,84.80
2023-12-28T01:39:05.419Z,84.59
2023-12-28T01:41:32.916Z,84.29
2023-12-28T01:44:01.669Z,84.92
2023-12-28T01:46:30.549Z,84.63
2023-12-28T01:48:58.271Z,84.43
2023-12-28T01:51:26.013Z,84.80
2023-12-28T01:53:54.751Z,84.59
2023-12-28T01:56:22.972Z,84.28
2023-12-28T01:58:53.663Z,85.01
2023-12-28T02:01:22.799Z,85.17
2023-12-28T02:03:50.647Z,85.07
2023-12-28T02:06:18.371Z,84.53
2023-12-28T02:08:45.804Z,85.04
2023-12-28T02:11:13.315Z,85.07
2023-12-28T02:13:40.714Z,84.28
2023-12-28T02:16:14.301Z,85.29
2023-12-28T02:18:45.259Z,84.50
2023-12-28T02:21:14.979Z,84.86
2023-12-28T02:23:48.102Z,84.82
2023-12-28T02:26:16.790Z,84.37
2023-12-28T02:28:44.932Z,85.62
2023-12-28T02:31:18.660Z,84.89
2023-12-28T02:33:52.024Z,85.54
2023-12-28T02:36:24.252Z,84.86
2023-12-28T02:38:53.975Z,85.34
2023-12-28T02:41:23.513Z,85.40
2023-12-28T02:43:50.780Z,85.15
2023-12-28T02:46:18.032Z,85.66
2023-12-28T02:48:45.458Z,85.25
2023-12-28T02:51:12.912Z,85.75
2023-12-28T02:53:40.124Z,85.76
2023-12-28T02:56:08.026Z,85.58
2023-12-28T02:58:36.789Z,85.09
2023-12-28T03:01:05.911Z,85.20
2023-12-28T03:03:33.295Z,85.42
2023-12-28T03:06:00.686Z,85.73
2023-12-28T03:08:27.905Z,86.18
2023-12-28T03:10:56.563Z,86.26
2023-12-28T03:13:23.806Z,86.24
2023-12-28T03:15:52.651Z,85.49
2023-12-28T03:18:20.152Z,85.86
2023-12-28T03:20:47.715Z,85.49
2023-12-28T03:23:15.266Z,85.76
2023-12-28T03:25:42.549Z,86.02
2023-12-28T03:28:09.894Z,86.23
2023-12-28T03:30:37.306Z,86.17
2023-12-28T03:33:06.186Z,86.10
2023-12-28T03:35:33.487Z,86.45
2023-12-28T03:40:28.817Z,86.12
2023-12-28T03:42:56.192Z,85.60
2023-12-28T03:45:23.419Z,86.11
2023-12-28T03:47:52.524Z,86.83
2023-12-28T03:50:21.425Z,86.40
2023-12-28T03:52:48.841Z,86.18
2023-12-28T03:55:16.268Z,86.48
2023-12-28T03:57:43.973Z,86.38
2023-12-28T04:00:12.166Z,86.41
2023-12-28T04:02:42.243Z,85.79
2023-12-28T04:05:09.835Z,86.32
2023-12-28T04:07:39.594Z,86.86
2023-12-28T04:10:07.884Z,85.93
2023-12-28T04:12:35.346Z,86.49
2023-12-28T04:15:02.839Z,86.46
2023-12-28T04:17:32.012Z,86.35
2023-12-28T04:19:59.398Z,86.31
2023-12-28T04:22:26.938Z,86.82
2023-12-28T04:24:56.635Z,86.11
2023-12-28T04:27:24.045Z,86.18
2023-12-28T04:29:51.872Z,86.47
2023-12-28T04:32:19.128Z,85.97
2023-12-28T04:34:46.461Z,86.94
2023-12-28T04:37:13.792Z,86.05
2023-12-28T04:39:42.096Z,86.55
2023-12-28T04:42:10.929Z,86.34
2023-12-28T04:44:39.624Z,86.82
2023-12-28T04:47:08.379Z,87.11
2023-12-28T04:49:37.512Z,86.38
2023-12-28T04:52:05.401Z,87.21
2023-12-28T04:54:34.007Z,87.22
2023-12-28T04:57:01.335Z,87.03
2023-12-28T04:59:30.117Z,87.35
2023-12-28T05:01:57.571Z,87.10
2023-12-28T05:04:25.215Z,86.50
2023-12-28T05:06:55.545Z,87.39
2023-12-28T05:09:22.789Z,87.41
2023-12-28T05:11:50.106Z,87.30
2023-12-28T05:14:17.426Z,86.48
2023-12-28T05:16:46.060Z,86.57
2023-12-28T05:19:13.614Z,87.23
2023-12-28T05:21:40.948Z,86.93
2023-12-28T05:24:08.428Z,86.41
2023-12-28T05:26:35.827Z,87.00
2023-12-28T05:29:03.334Z,86.92
2023-12-28T05:31:30.834Z,87.28
2023-12-28T05:33:59.859Z,86.75
2023-12-28T05:36:27.193Z,86.54
2023-12-28T05:38:54.597Z,87.33
2023-12-28T05:41:22.155Z,87.09
2023-12-28T05:43:49.374Z,86.82
2023-12-28T05:46:16.586Z,86.31
2023-12-28T05:48:43.954Z,86.48
2023-12-28T05:51:13.069Z,86.94
2023-12-28T05:53:40.380Z,87.22
2023-12-28T05:56:07.884Z,86.56
2023-12-28T05:58:35.159Z,86.65
2023-12-28T06:01:02.633Z,86.37
2023-12-28T06:03:30.572Z,87.15
2023-12-28T06:05:57.969Z,86.46
2023-12-28T06:08:28.232Z,86.32
2023-12-28T06:10:55.804Z,86.56
2023-12-28T06:13:23.038Z,86.68
2023-12-28T06:15:50.407Z,86.83
2023-12-28T06:18:17.903Z,87.14
2023-12-28T06:20:45.281Z,85.99
2023-12-28T06:23:12.816Z,86.29
2023-12-28T06:25:43.970Z,86.73
2023-12-28T06:28:12.248Z,85.95
2023-12-28T06:30:41.018Z,86.67
2023-12-28T06:33:09.037Z,86.72
2023-12-28T06:35:36.368Z,86.27
2023-12-28T06:38:04.130Z,86.15
2023-12-28T06:40:31.460Z,86.04
2023-12-28T06:43:00.924Z,86.46
2023-12-28T06:45:29.677Z,86.21
2023-12-28T06:48:00.547Z,86.43
2023-12-28T06:50:28.103Z,85.70
2023-12-28T06:52:55.593Z,85.88
2023-12-28T06:55:22.794Z,85.41
2023-12-28T06:57:50.066Z,86.30
2023-12-28T07:00:19.237Z,85.87
2023-12-28T07:02:46.519Z,85.51
2023-12-28T07:05:15.267Z,85.29
2023-12-28T07:07:42.898Z,85.55
2023-12-28T07:10:10.296Z,85.29
2023-12-28T07:12:37.800Z,85.83
2023-12-28T07:15:06.226Z,85.07
2023-12-28T07:17:34.932Z,84.84
2023-12-28T07:20:02.237Z,85.04
2023-12-28T07:22:31.830Z,85.94
2023-12-28T07:25:00.318Z,85.06
2023-12-28T07:27:27.762Z,86.06
2023-12-28T07:29:55.107Z,85.76
2023-12-28T07:32:24.203Z,85.77
2023-12-28T07:34:53.305Z,85.31
2023-12-28T07:37:20.644Z,85.23
2023-12-28T07:39:48.044Z,85.94
2023-12-28T07:42:16.463Z,85.79
2023-12-28T07:44:44.258Z,85.44
2023-12-28T07:47:12.917Z,85.33
2023-12-28T07:49:40.222Z,85.32
2023-12-28T07:52:08.905Z,84.89
2023-12-28T07:54:36.230Z,85.46
2023-12-28T07:57:03.942Z,85.55
2023-12-28T07:59:31.215Z,84.99
2023-12-28T08:01:58.398Z,85.43
2023-12-28T08:04:25.953Z,84.64
2023-12-28T08:06:53.358Z,85.18
2023-12-28T08:09:21.959Z,84.92
2023-12-28T08:11:49.357Z,85.13
2023-12-28T08:14:16.737Z,85.02
2023-12-28T08:16:44.298Z,84.60
2023-12-28T08:19:12.313Z,84.56
2023-12-28T08:21:39.704Z,83.93
2023-12-28T08:24:07.145Z,84.74
2023-12-28T08:26:35.707Z,84.22
2023-12-28T08:29:03.442Z,83.90
2023-12-28T08:31:31.212Z,83.61
2023-12-28T08:33:58.896Z,83.98
2023-12-28T08:36:26.489Z,83.26
2023-12-28T08:38:53.778Z,84.19
2023-12-28T08:41:21.267Z,84.26
2023-12-28T08:43:49.996Z,83.34
2023-12-28T08:46:17.913Z,83.38
2023-12-28T08:48:45.357Z,84.02
2023-12-28T08:51:12.793Z,84.17
2023-12-28T08:53:40.773Z,83.32
2023-12-28T08:56:15.113Z,83.33
2023-12-28T08:58:42.616Z,83.03
2023-12-28T09:01:17.472Z,83.28
2023-12-28T09:03:45.271Z,83.42
2023-12-28T09:06:12.656Z,82.51
2023-12-28T09:08:42.752Z,83.50
2023-12-28T09:11:11.580Z,82.36
2023-12-28T09:13:39.681Z,83.04
2023-12-28T09:16:08.330Z,82.25
2023-12-28T09:18:40.376Z,82.66
2023-12-28T09:21:09.227Z,82.36
2023-12-28T09:23:37.149Z,82.24
2023-12-28T09:26:05.765Z,83.28
2023-12-28T09:28:33.457Z,82.83
2023-12-28T09:31:01.410Z,82.72
2023-12-28T09:33:29.064Z,82.50
2023-12-28T09:35:57.846Z,82.50
2023-12-28T09:38:25.122Z,83.31
2023-12-28T09:40:54.251Z,82.49
2023-12-28T09:43:25.080Z,82.90
2023-12-28T09:45:52.875Z,82.26
2023-12-28T09:48:23.435Z,82.79
2023-12-28T09:50:52.260Z,82.83
2023-12-28T09:53:24.074Z,82.74
2023-12-28T09:55:55.318Z,82.48
2023-12-28T09:58:23.622Z,81.90
2023-12-28T10:00:52.036Z,81.96
2023-12-28T10:03:20.010Z,81.28
2023-12-28T10:05:48.628Z,81.12
2023-12-28T10:08:17.204Z,80.92
2023-12-28T10:10:52.506Z,80.09
2023-12-28T10:13:19.988Z,80.30
2023-12-28T10:15:47.543Z,79.93
2023-12-28T10:18:14.854Z,79.26
2023-12-28T10:20:42.147Z,79.53
2023-12-28T10:23:11.327Z,79.22
2023-12-28T10:25:38.621Z,79.46
2023-12-28T10:28:07.905Z,79.44
2023-12-28T10:30:35.308Z,79.73
2023-12-28T10:33:06.000Z,79.60
2023-12-28T10:35:33.800Z,79.22
2023-12-28T10:38:04.824Z,79.33
2023-12-28T10:40:38.013Z,79.17
2023-12-28T10:43:10.202Z,79.06
2023-12-28T10:45:40.788Z,79.47
2023-12-28T10:48:09.696Z,79.01
2023-12-28T10:50:41.218Z,78.94
2023-12-28T10:53:25.700Z,78.52
2023-12-28T10:56:03.357Z,78.32
2023-12-28T10:58:40.741Z,78.83
2023-12-28T11:01:10.959Z,78.70
2023-12-28T11:03:42.290Z,78.68
2023-12-28T11:06:10.684Z,78.48
2023-12-28T11:08:44.021Z,78.51
2023-12-28T11:11:13.133Z,78.83
2023-12-28T11:13:42.721Z,78.45
2023-12-28T11:16:10.823Z,78.72
2023-12-28T11:18:38.366Z,79.30
2023-12-28T11:21:07.671Z,78.42
2023-12-28T11:23:36.113Z,78.76
2023-12-28T11:26:03.829Z,78.54
2023-12-28T11:28:31.583Z,79.04
2023-12-28T11:31:00.570Z,78.44
2023-12-28T11:33:32.465Z,78.25
2023-12-28T11:35:59.714Z,78.35
2023-12-28T11:38:28.097Z,79.21
2023-12-28T11:40:58.497Z,79.00
2023-12-28T11:43:28.597Z,78.82
2023-12-28T11:45:56.763Z,78.19
2023-12-28T11:48:26.997Z,78.12
2023-12-28T11:50:59.014Z,78.55
2023-12-28T11:53:27.144Z,78.58
2023-12-28T11:56:04.512Z,79.04
2023-12-28T11:58:32.014Z,78.49
2023-12-28T12:00:59.382Z,79.25
2023-12-28T12:03:28.432Z,79.15
2023-12-28T12:05:58.423Z,79.10
2023-12-28T12:08:25.905Z,79.16
2023-12-28T12:11:02.192Z,79.34
2023-12-28T12:13:29.761Z,78.89
2023-12-28T12:15:58.267Z,79.48
2023-12-28T12:18:27.904Z,78.53
2023-12-28T12:20:55.610Z,79.21
2023-12-28T12:23:22.828Z,79.39
2023-12-28T12:25:50.459Z,78.89
2023-12-28T12:28:17.783Z,78.98
2023-12-28T12:30:52.549Z,78.49
2023-12-28T12:33:20.204Z,79.33
2023-12-28T12:35:49.337Z,78.87
2023-12-28T12:38:17.812Z,78.68
2023-12-28T12:40:45.301Z,78.17
2023-12-28T12:43:12.865Z,77.89
2023-12-28T12:45:41.007Z,77.82
2023-12-28T12:48:08.844Z,77.40
2023-12-28T12:50:38.158Z,78.15
2023-12-28T12:53:07.679Z,77.20
2023-12-28T12:55:35.113Z,77.93
2023-12-28T12:58:02.906Z,77.75
2023-12-28T13:00:30.426Z,77.29
2023-12-28T13:03:00.933Z,76.82
2023-12-28T13:05:30.369Z,76.21
2023-12-28T13:07:57.681Z,76.49
2023-12-28T13:10:26.262Z,76.65
2023-12-28T13:12:54.688Z,76.49
2023-12-28T13:15:22.093Z,76.44
2023-12-28T13:17:49.694Z,76.40
2023-12-28T13:20:17.071Z,75.81
2023-12-28T13:22:44.266Z,75.47
2023-12-28T13:25:12.094Z,75.08
2023-12-28T13:27:40.816Z,75.76
2023-12-28T13:30:09.104Z,75.49
2023-12-28T13:32:36.522Z,74.81
2023-12-28T13:35:04.586Z,75.12
2023-12-28T13:37:32.616Z,74.75
2023-12-28T13:40:00.544Z,74.45
2023-12-28T13:42:28.595Z,74.30
2023-12-28T13:44:57.286Z,74.49
2023-12-28T13:47:24.612Z,74.73
2023-12-28T13:49:52.148Z,75.08
2023-12-28T13:52:19.479Z,74.04
2023-12-28T13:54:47.077Z,74.43
2023-12-28T13:57:14.517Z,74.26
2023-12-28T13:59:41.779Z,74.74
2023-12-28T14:02:10.466Z,74.19
2023-12-28T14:04:37.905Z,73.42
2023-12-28T14:07:05.597Z,73.66
2023-12-28T14:09:34.331Z,72.97
2023-12-28T14:12:01.563Z,73.50
2023-12-28T14:14:28.805Z,72.68
2023-12-28T14:16:56.975Z,73.25
2023-12-28T14:19:25.674Z,72.48
2023-12-28T14:21:53.491Z,72.28
2023-12-28T14:24:21.413Z,72.89
2023-12-28T14:26:52.388Z,72.47
2023-12-28T14:29:20.148Z,72.56
2023-12-28T14:31:48.332Z,72.62
2023-12-28T14:34:16.576Z,72.66
2023-12-28T14:36:52.545Z,72.35
2023-12-28T14:39:20.300Z,72.23
2023-12-28T14:41:47.757Z,72.71
2023-12-28T14:44:15.408Z,72.35
2023-12-28T14:46:42.686Z,73.39
2023-12-28T14:49:10.590Z,73.40
2023-12-28T14:51:38.180Z,73.24
2023-12-28T14:54:07.051Z,73.26
2023-12-28T14:56:41.081Z,73.07
2023-12-28T14:59:16.233Z,72.42
2023-12-28T15:01:43.570Z,73.15
2023-12-28T15:04:11.024Z,72.39
2023-12-28T15:06:38.564Z,72.31
2023-12-28T15:09:07.447Z,72.79
2023-12-28T15:11:45.423Z,72.86
2023-12-28T15:14:17.798Z,72.07
2023-12-28T15:16:46.320Z,72.59
2023-12-28T15:19:15.024Z,72.29
2023-12-28T15:21:43.075Z,72.45
2023-12-28T15:24:12.914Z,72.42
2023-12-28T15:26:40.708Z,72.35
2023-12-28T15:29:08.049Z,72.77
2023-12-28T15:31:35.638Z,72.57
2023-12-28T15:34:03.318Z,72.40
2023-12-28T15:36:30.750Z,72.59
2023-12-28T15:38:58.006Z,72.51
2023-12-28T15:41:26.766Z,72.90
2023-12-28T15:43:54.110Z,73.49
2023-12-28T15:46:21.723Z,73.55
2023-12-28T15:48:49.046Z,72.92
2023-12-28T15:51:16.686Z,73.37
2023-12-28T15:53:44.223Z,73.26
2023-12-28T15:56:18.378Z,73.73
2023-12-28T15:58:48.710Z,73.45
2023-12-28T16:01:16.836Z,72.96
2023-12-28T16:03:44.293Z,73.86
2023-12-28T16:06:12.403Z,73.08
2023-12-28T16:08:39.771Z,73.94
2023-12-28T16:11:07.484Z,74.18
2023-12-28T16:13:35.595Z,74.13
2023-12-28T16:16:09.589Z,74.41
2023-12-28T16:18:40.823Z,74.51
2023-12-28T16:21:10.233Z,73.84
2023-12-28T16:23:38.557Z,74.65
2023-12-28T16:26:06.372Z,75.02
2023-12-28T16:28:35.398Z,74.67
2023-12-28T16:31:04.533Z,74.34
2023-12-28T16:33:32.059Z,75.42
2023-12-28T16:35:59.535Z,75.32
2023-12-28T16:38:26.719Z,75.21
2023-12-28T16:40:54.358Z,75.15
2023-12-28T16:43:22.601Z,75.46
2023-12-28T16:45:50.705Z,76.43
2023-12-28T16:48:19.692Z,75.53
2023-12-28T16:50:47.103Z,75.82
2023-12-28T16:53:14.492Z,75.91
2023-12-28T16:55:41.941Z,75.90
2023-12-28T16:58:09.663Z,76.41
2023-12-28T17:00:37.954Z,76.60
2023-12-28T17:03:06.091Z,76.54
2023-12-28T17:05:36.008Z,75.95
2023-12-28T17:08:03.819Z,76.39
2023-12-28T17:10:32.047Z,76.46
2023-12-28T17:13:00.168Z,76.71
2023-12-28T17:15:28.477Z,76.47
2023-12-28T17:17:57.110Z,76.72
2023-12-28T17:20:25.283Z,76.45
2023-12-28T17:23:01.540Z,76.38
2023-12-28T17:25:36.371Z,76.55
2023-12-28T17:28:06.999Z,76.30
2023-12-28T17:30:37.289Z,76.37
2023-12-28T17:33:05.834Z,76.14
2023-12-28T17:35:33.902Z,75.54
2023-12-28T17:38:03.463Z,75.27
2023-12-28T17:40:32.209Z,75.37
2023-12-28T17:43:05.006Z,75.70
2023-12-28T17:45:39.494Z,75.21
2023-12-28T17:48:09.067Z,75.80
2023-12-28T17:50:38.621Z,75.53
2023-12-28T17:53:09.104Z,75.70
2023-12-28T17:55:36.425Z,75.80
2023-12-28T17:58:04.132Z,75.20
2023-12-28T18:00:31.711Z,75.52
2023-12-28T18:02:58.996Z,75.73
2023-12-28T18:05:26.722Z,75.31
2023-12-28T18:07:53.999Z,75.89
2023-12-28T18:10:23.419Z,75.43
2023-12-28T18:12:50.693Z,75.31
2023-12-28T18:15:18.106Z,75.42
2023-12-28T18:17:45.605Z,75.81
2023-12-28T18:20:13.357Z,75.74
2023-12-28T18:22:40.705Z,75.59
2023-12-28T18:25:08.849Z,76.12
2023-12-28T18:27:37.733Z,76.41
2023-12-28T18:30:06.523Z,76.15
2023-12-28T18:32:34.104Z,76.20
2023-12-28T18:35:01.805Z,76.45
2023-12-28T18:37:30.987Z,76.83
2023-12-28T18:39:58.522Z,76.50
2023-12-28T18:42:25.917Z,76.35
2023-12-28T18:44:54.501Z,76.40
2023-12-28T18:47:22.092Z,76.00
2023-12-28T18:49:50.983Z,76.81
2023-12-28T18:52:18.321Z,76.62
2023-12-28T18:54:45.642Z,76.70
2023-12-28T18:57:13.050Z,75.92
2023-12-28T18:59:40.425Z,76.21
2023-12-28T19:02:09.158Z,75.74
2023-12-28T19:04:36.823Z,76.49
2023-12-28T19:07:04.525Z,75.89
2023-12-28T19:09:32.236Z,75.84
2023-12-28T19:11:59.487Z,75.75
2023-12-28T19:14:26.934Z,76.41
2023-12-28T19:16:54.278Z,75.57
2023-12-28T19:19:22.922Z,76.21
2023-12-28T19:21:50.958Z,76.36
2023-12-28T19:24:18.351Z,76.18
2023-12-28T19:26:45.687Z,75.97
2023-12-28T19:29:15.114Z,76.46
2023-12-28T19:31:43.333Z,76.74
2023-12-28T19:34:10.702Z,76.25
2023-12-28T19:36:39.654Z,76.70
2023-12-28T19:39:07.504Z,76.59
2023-12-28T19:41:35.264Z,76.34
2023-12-28T19:44:04.644Z,76.20
2023-12-28T19:46:50.212Z,76.11
2023-12-28T19:49:17.871Z,77.02
2023-12-28T19:51:46.518Z,76.11
2023-12-28T19:54:14.151Z,76.41
2023-12-28T19:56:42.548Z,76.40
2023-12-28T19:59:09.829Z,76.54
2023-12-28T20:01:37.281Z,76.29
2023-12-28T20:04:04.978Z,76.54
2023-12-28T20:06:32.394Z,76.67
2023-12-28T20:09:01.076Z,76.26
2023-12-28T20:11:28.400Z,76.93
2023-12-28T20:13:55.810Z,77.05
2023-12-28T20:16:23.103Z,76.67
2023-12-28T20:18:50.894Z,76.73
2023-12-28T20:21:19.947Z,76.53
2023-12-28T20:23:47.533Z,77.28
2023-12-28T20:26:16.311Z,76.81
2023-12-28T20:28:43.865Z,76.78
2023-12-28T20:31:11.673Z,77.44
2023-12-28T20:33:39.224Z,77.43
2023-12-28T20:36:07.277Z,77.26
2023-12-28T20:38:34.525Z,77.22
2023-12-28T20:41:04.084Z,77.70
2023-12-28T20:43:34.279Z,77.44
2023-12-28T20:46:02.234Z,77.45
2023-12-28T20:48:29.701Z,77.34
2023-12-28T20:50:56.920Z,77.82
2023-12-28T20:53:24.337Z,77.77
2023-12-28T20:55:51.723Z,77.71
2023-12-28T20:58:18.961Z,77.34
2023-12-28T21:00:47.748Z,77.31
2023-12-28T21:03:15.061Z,77.37
2023-12-28T21:05:42.284Z,77.63
2023-12-28T21:08:09.759Z,78.03
2023-12-28T21:10:38.653Z,77.52
2023-12-28T21:13:06.522Z,77.88
2023-12-28T21:15:33.965Z,77.15
2023-12-28T21:18:12.610Z,77.80
2023-12-28T21:21:01.099Z,77.46
2023-12-28T21:23:35.272Z,77.67
2023-12-28T21:26:02.596Z,77.91
2023-12-28T21:28:30.047Z,78.10
2023-12-28T21:30:57.765Z,78.21
2023-12-28T21:33:26.911Z,78.45
2023-12-28T21:35:54.283Z,77.80
2023-12-28T21:38:21.778Z,77.86
2023-12-28T21:40:49.215Z,78.68
2023-12-28T21:43:17.478Z,78.09
2023-12-28T21:45:47.010Z,78.18
2023-12-28T21:48:14.955Z,78.90
2023-12-28T21:50:43.892Z,79.10
2023-12-28T21:53:13.006Z,79.14
2023-12-28T21:55:40.605Z,78.47
2023-12-28T21:58:13.354Z,79.00
2023-12-28T22:00:40.892Z,78.79
2023-12-28T22:03:08.286Z,79.18
2023-12-28T22:05:37.761Z,78.70
2023-12-28T22:08:07.205Z,78.67
2023-12-28T22:10:35.466Z,78.64
2023-12-28T22:13:02.825Z,78.89
2023-12-28T22:15:30.040Z,78.79
2023-12-28T22:17:58.206Z,79.03
2023-12-28T22:20:25.708Z,79.00
2023-12-28T22:22:53.136Z,79.33
2023-12-28T22:25:22.006Z,78.98
2023-12-28T22:27:49.260Z,79.06
2023-12-28T22:30:18.192Z,79.81
2023-12-28T22:32:48.426Z,79.53
2023-12-28T22:35:15.824Z,79.44
2023-12-28T22:37:43.382Z,79.91
2023-12-28T22:40:12.206Z,79.62
2023-12-28T22:42:40.889Z,79.64
2023-12-28T22:45:08.672Z,80.33
2023-12-28T22:47:36.425Z,79.87
2023-12-28T22:50:04.239Z,80.17
2023-12-28T22:52:32.144Z,80.53
2023-12-28T22:54:59.550Z,79.86
2023-12-28T22:57:27.158Z,80.58
2023-12-28T22:59:55.900Z,80.56
2023-12-28T23:02:23.508Z,80.78
2023-12-28T23:04:55.852Z,80.05
2023-12-28T23:07:25.579Z,80.68
2023-12-28T23:09:53.520Z,80.21
2023-12-28T23:12:21.085Z,80.71
2023-12-28T23:14:49.357Z,80.82
2023-12-28T23:17:18.101Z,80.97
2023-12-28T23:19:46.420Z,80.71
2023-12-28T23:22:13.984Z,80.91
2023-12-28T23:24:42.005Z,80.74
2023-12-28T23:27:10.179Z,81.21
2023-12-28T23:29:39.950Z,80.56
2023-12-28T23:32:07.692Z,80.59
2023-12-28T23:34:36.735Z,80.78
2023-12-28T23:37:04.666Z,81.23
2023-12-28T23:39:32.049Z,80.76
2023-12-28T23:41:59.470Z,81.01
2023-12-28T23:44:26.719Z,80.56
2023-12-28T23:46:54.354Z,81.16
2023-12-28T23:49:21.802Z,81.12
2023-12-28T23:51:50.791Z,80.63
2023-12-28T23:54:18.145Z,80.75
2023-12-28T23:56:45.730Z,81.04
2023-12-28T23:59:12.967Z,80.60
